Time;durP1;ratioP1;P1;durP2;ratioP2;P2;SDS_P1;SDS_P2;PMS_P1;PMS_P2;Temp;Humidity;BMP_temperature;BMP_pressure;BME280_temperature;BME280_humidity;BME280_pressure;Samples;Min_cycle;Max_cycle;Signal;HPM_P1;HPM_P2
2023/07/23 00:00:00;;;;;;;7.07;6.50;;;18.40;1.00;;;;;;5044772;28;20585;-80
2023/07/23 00:02:27;;;;;;;7.77;7.17;;;18.50;1.00;;;;;;5039981;28;20454;-80
2023/07/23 00:04:56;;;;;;;7.77;7.07;;;18.50;1.00;;;;;;5045629;28;21135;-80
2023/07/23 00:07:25;;;;;;;7.83;7.03;;;18.50;1.00;;;;;;5043306;28;21011;-80
2023/07/23 00:09:52;;;;;;;6.80;6.20;;;18.50;1.00;;;;;;5042939;28;20465;-73
2023/07/23 00:12:19;;;;;;;6.50;5.90;;;18.60;1.00;;;;;;5043600;28;20458;-73
2023/07/23 00:14:46;;;;;;;7.47;6.83;;;18.50;1.00;;;;;;5043571;28;20491;-74
2023/07/23 00:17:13;;;;;;;8.10;7.40;;;18.60;1.00;;;;;;5042389;28;20482;-73
2023/07/23 00:19:40;;;;;;;6.67;6.17;;;18.60;1.00;;;;;;5030860;28;20449;-74
2023/07/23 00:22:07;;;;;;;8.53;7.73;;;18.60;1.00;;;;;;5044748;28;20457;-74
2023/07/23 00:24:35;;;;;;;7.50;6.90;;;18.60;1.00;;;;;;5043974;28;20477;-74
2023/07/23 00:27:02;;;;;;;7.50;6.80;;;18.60;1.00;;;;;;5039251;28;20479;-74
2023/07/23 00:29:29;;;;;;;6.63;6.07;;;18.60;1.00;;;;;;5044384;28;20451;-73
2023/07/23 00:31:57;;;;;;;7.00;6.40;;;18.60;1.00;;;;;;5042213;28;20792;-74
2023/07/23 00:34:24;;;;;;;7.43;6.73;;;18.60;1.00;;;;;;5040113;28;20570;-73
2023/07/23 00:36:51;;;;;;;7.57;6.53;;;18.60;1.00;;;;;;5041754;28;20546;-75
2023/07/23 00:39:19;;;;;;;7.10;6.50;;;18.60;1.00;;;;;;5040302;28;20449;-73
2023/07/23 00:41:47;;;;;;;7.30;6.00;;;18.50;1.00;;;;;;5040704;28;20908;-73
2023/07/23 00:44:15;;;;;;;6.50;6.00;;;18.40;1.00;;;;;;5040531;28;20487;-74
2023/07/23 00:46:42;;;;;;;7.70;7.00;;;18.50;1.00;;;;;;5039968;28;20470;-74
2023/07/23 00:49:09;;;;;;;7.60;6.90;;;18.50;1.00;;;;;;5041595;28;20565;-73
2023/07/23 00:51:36;;;;;;;6.73;6.13;;;18.60;1.00;;;;;;5042573;28;20926;-73
2023/07/23 00:54:06;;;;;;;7.70;6.83;;;18.70;1.00;;;;;;5043453;28;20458;-73
2023/07/23 00:56:33;;;;;;;7.57;6.87;;;18.70;1.00;;;;;;5009133;28;20480;-73
2023/07/23 00:59:02;;;;;;;7.33;6.63;;;18.60;1.00;;;;;;5038737;28;20976;-73
2023/07/23 01:01:30;;;;;;;7.57;6.77;;;18.60;1.00;;;;;;5020882;28;20964;-74
2023/07/23 01:03:57;;;;;;;6.77;6.17;;;18.60;1.00;;;;;;5042381;22;20459;-70
2023/07/23 01:06:26;;;;;;;7.97;6.83;;;18.50;1.00;;;;;;5015275;28;20467;-69
2023/07/23 01:08:55;;;;;;;7.03;6.43;;;18.40;1.00;;;;;;5025712;28;20490;-71
2023/07/23 01:11:23;;;;;;;7.63;6.20;;;18.50;1.00;;;;;;5026278;28;20496;-72
2023/07/23 01:13:52;;;;;;;7.03;6.43;;;18.40;1.00;;;;;;5025226;28;20446;-71
2023/07/23 01:16:21;;;;;;;6.47;5.87;;;18.40;1.00;;;;;;5026527;28;20566;-72
2023/07/23 01:18:48;;;;;;;6.93;6.10;;;18.30;1.00;;;;;;5026702;28;20949;-71
2023/07/23 01:21:17;;;;;;;6.80;6.13;;;18.30;1.00;;;;;;5028719;28;20470;-70
2023/07/23 01:23:45;;;;;;;7.83;7.13;;;18.30;1.00;;;;;;5029108;28;20467;-71
2023/07/23 01:26:13;;;;;;;7.80;6.40;;;18.30;1.00;;;;;;5029383;28;20976;-70
2023/07/23 01:28:40;;;;;;;7.20;6.30;;;18.20;1.00;;;;;;5029263;28;20481;-70
2023/07/23 01:31:07;;;;;;;8.20;6.80;;;18.10;1.00;;;;;;5023351;28;20479;-71
2023/07/23 01:33:35;;;;;;;6.57;6.00;;;18.20;1.00;;;;;;5029748;28;20491;-71
2023/07/23 01:36:03;;;;;;;8.80;6.77;;;18.20;1.00;;;;;;5030537;28;20558;-70
2023/07/23 01:38:30;;;;;;;7.20;6.10;;;18.20;1.00;;;;;;5026237;28;20442;-71
2023/07/23 01:41:00;;;;;;;6.20;5.70;;;18.20;1.00;;;;;;5028927;28;20482;-70
2023/07/23 01:43:28;;;;;;;7.63;6.93;;;18.20;1.00;;;;;;5026034;28;20477;-70
2023/07/23 01:45:55;;;;;;;7.10;6.50;;;18.30;1.00;;;;;;5028424;28;20473;-70
2023/07/23 01:48:23;;;;;;;6.60;5.97;;;18.20;1.00;;;;;;5022097;28;20529;-70
2023/07/23 01:50:50;;;;;;;7.73;7.00;;;18.10;1.00;;;;;;5028410;28;20887;-70
2023/07/23 01:53:17;;;;;;;7.23;6.63;;;18.10;1.00;;;;;;5029924;28;20457;-71
2023/07/23 01:55:44;;;;;;;8.77;7.37;;;17.90;1.00;;;;;;5026318;28;20953;-71
2023/07/23 01:58:13;;;;;;;8.30;6.93;;;17.70;1.00;;;;;;5025990;28;20474;-70
2023/07/23 02:00:40;;;;;;;7.00;6.40;;;17.60;1.00;;;;;;5028326;28;20531;-71
2023/07/23 02:03:07;;;;;;;6.80;6.10;;;17.50;1.00;;;;;;5025156;28;20870;-69
2023/07/23 02:05:36;;;;;;;7.87;7.13;;;17.40;1.00;;;;;;5025548;28;20477;-69
2023/07/23 02:08:03;;;;;;;8.40;7.70;;;17.30;1.00;;;;;;5027346;28;20974;-71
2023/07/23 02:10:30;;;;;;;8.30;7.40;;;17.30;1.00;;;;;;5028936;28;20547;-71
2023/07/23 02:12:57;;;;;;;7.50;6.80;;;17.40;1.00;;;;;;5033356;28;20461;-71
2023/07/23 02:15:25;;;;;;;7.00;6.40;;;17.30;1.00;;;;;;5024924;28;20474;-71
2023/07/23 02:17:52;;;;;;;6.87;6.27;;;17.20;1.00;;;;;;5031403;28;20473;-71
2023/07/23 02:20:19;;;;;;;7.77;7.07;;;17.10;1.00;;;;;;5026744;28;20485;-71
2023/07/23 02:22:48;;;;;;;7.37;6.60;;;17.10;1.00;;;;;;5026761;28;20925;-71
2023/07/23 02:25:15;;;;;;;8.00;7.20;;;17.10;1.00;;;;;;5027925;28;20552;-70
2023/07/23 02:27:41;;;;;;;7.77;6.67;;;17.10;1.00;;;;;;5026901;28;20478;-71
2023/07/23 02:30:09;;;;;;;8.00;7.40;;;17.10;1.00;;;;;;5023260;28;20566;-70
2023/07/23 02:32:38;;;;;;;8.60;7.30;;;17.10;1.00;;;;;;5025052;28;20548;-71
2023/07/23 02:35:06;;;;;;;8.47;7.67;;;17.10;1.00;;;;;;5027649;28;20886;-71
2023/07/23 02:37:33;;;;;;;7.83;7.20;;;17.10;1.00;;;;;;5031551;28;20658;-71
2023/07/23 02:40:00;;;;;;;8.23;7.43;;;17.00;1.00;;;;;;5026998;28;20958;-71
2023/07/23 02:42:27;;;;;;;7.70;7.00;;;17.10;1.00;;;;;;5029851;28;20445;-70
2023/07/23 02:44:54;;;;;;;7.53;6.83;;;17.00;1.00;;;;;;5024805;28;20492;-70
2023/07/23 02:47:21;;;;;;;8.10;7.40;;;17.10;1.00;;;;;;5028412;28;20973;-70
2023/07/23 02:49:49;;;;;;;8.00;7.30;;;17.10;1.00;;;;;;5028448;28;20612;-71
2023/07/23 02:52:16;;;;;;;8.47;7.67;;;17.00;1.00;;;;;;5030639;28;20965;-71
2023/07/23 02:54:43;;;;;;;8.20;7.40;;;17.00;1.00;;;;;;5026614;28;20477;-71
2023/07/23 02:57:10;;;;;;;22.67;20.63;;;17.00;1.00;;;;;;5025545;28;20454;-71
2023/07/23 02:59:37;;;;;;;8.73;8.03;;;16.90;1.00;;;;;;5021014;28;20464;-71
2023/07/23 03:02:04;;;;;;;9.50;8.70;;;16.80;1.00;;;;;;5022246;28;20457;-72
2023/07/23 03:04:31;;;;;;;9.27;8.03;;;16.70;1.00;;;;;;5028367;28;20505;-71
2023/07/23 03:07:00;;;;;;;8.87;8.03;;;16.70;1.00;;;;;;5026869;28;20504;-72
2023/07/23 03:09:29;;;;;;;11.63;8.90;;;16.70;1.00;;;;;;5028914;28;20504;-73
2023/07/23 03:11:56;;;;;;;8.53;7.73;;;16.60;1.00;;;;;;5023856;28;20525;-72
2023/07/23 03:14:23;;;;;;;8.63;7.70;;;16.60;1.00;;;;;;5026339;28;20477;-72
2023/07/23 03:16:49;;;;;;;10.70;9.60;;;16.60;1.00;;;;;;5027414;28;20875;-71
2023/07/23 03:19:16;;;;;;;9.73;8.73;;;16.60;1.00;;;;;;5033584;28;20485;-71
2023/07/23 03:21:43;;;;;;;10.20;9.30;;;16.50;1.00;;;;;;5009209;28;20463;-71
2023/07/23 03:24:12;;;;;;;10.37;9.37;;;16.50;1.00;;;;;;5030066;28;20485;-73
2023/07/23 03:26:38;;;;;;;11.23;9.30;;;16.60;1.00;;;;;;5029852;28;20564;-72
2023/07/23 03:29:05;;;;;;;9.60;8.70;;;16.60;1.00;;;;;;5029773;28;20596;-71
2023/07/23 03:31:32;;;;;;;10.20;9.07;;;16.60;1.00;;;;;;5030182;28;20556;-72
2023/07/23 03:33:59;;;;;;;9.50;8.50;;;16.60;1.00;;;;;;5028749;28;20477;-74
2023/07/23 03:36:27;;;;;;;10.23;9.33;;;16.60;1.00;;;;;;5029662;28;20623;-72
2023/07/23 03:38:54;;;;;;;10.27;9.23;;;16.60;1.00;;;;;;5030893;28;20468;-71
2023/07/23 03:41:22;;;;;;;10.20;9.17;;;16.60;1.00;;;;;;5027387;28;20856;-71
2023/07/23 03:43:52;;;;;;;11.03;9.97;;;16.60;1.00;;;;;;5031009;28;20473;-71
2023/07/23 03:46:19;;;;;;;11.07;10.00;;;16.70;1.00;;;;;;5031118;28;20468;-71
2023/07/23 03:48:47;;;;;;;8.77;8.07;;;16.70;1.00;;;;;;5028739;28;20484;-70
2023/07/23 03:51:16;;;;;;;10.00;7.90;;;16.70;1.00;;;;;;5028751;28;20472;-71
2023/07/23 03:53:43;;;;;;;12.13;10.97;;;16.70;1.00;;;;;;5028970;28;20481;-71
2023/07/23 03:56:10;;;;;;;9.47;8.47;;;16.80;1.00;;;;;;5027961;28;20473;-71
2023/07/23 03:58:39;;;;;;;10.37;9.37;;;16.90;1.00;;;;;;5029162;28;20466;-71
2023/07/23 04:01:05;;;;;;;9.60;8.60;;;16.90;1.00;;;;;;5026875;28;20468;-72
2023/07/23 04:03:32;;;;;;;9.20;8.27;;;16.90;1.00;;;;;;5022139;28;20564;-73
2023/07/23 04:05:59;;;;;;;9.70;8.83;;;16.90;1.00;;;;;;5022381;28;21011;-71
2023/07/23 04:08:26;;;;;;;9.27;8.13;;;17.00;1.00;;;;;;5027992;28;20511;-72
2023/07/23 04:10:55;;;;;;;10.30;9.30;;;17.10;1.00;;;;;;5029547;28;20519;-73
2023/07/23 04:13:22;;;;;;;9.23;8.20;;;17.20;1.00;;;;;;5028168;28;20984;-72
2023/07/23 04:15:50;;;;;;;9.10;7.97;;;17.20;1.00;;;;;;5027527;28;20836;-72
2023/07/23 04:18:18;;;;;;;9.70;8.80;;;17.30;1.00;;;;;;5021927;28;20557;-72
2023/07/23 04:20:45;;;;;;;9.03;8.17;;;17.30;1.00;;;;;;5028081;28;20477;-72
2023/07/23 04:23:12;;;;;;;9.03;8.33;;;17.30;1.00;;;;;;5028436;28;20483;-71
2023/07/23 04:25:39;;;;;;;9.83;8.83;;;17.40;1.00;;;;;;5027932;28;20870;-71
2023/07/23 04:28:06;;;;;;;10.33;9.30;;;17.40;1.00;;;;;;5027586;28;20557;-72
2023/07/23 04:30:34;;;;;;;9.73;8.87;;;17.40;1.00;;;;;;5027136;28;20884;-71
2023/07/23 04:33:02;;;;;;;9.53;8.63;;;17.50;1.00;;;;;;5029313;28;20574;-72
2023/07/23 04:35:29;;;;;;;9.53;8.53;;;17.60;1.00;;;;;;5028264;28;20467;-72
2023/07/23 04:37:56;;;;;;;9.83;8.00;;;17.60;1.00;;;;;;5023440;28;20469;-71
2023/07/23 04:40:23;;;;;;;9.63;8.73;;;17.60;1.00;;;;;;5027824;28;20466;-72
2023/07/23 04:42:50;;;;;;;11.33;8.63;;;17.60;1.00;;;;;;5030839;28;20490;-71
2023/07/23 04:45:17;;;;;;;9.10;8.30;;;17.50;1.00;;;;;;5029229;28;20556;-71
2023/07/23 04:47:44;;;;;;;10.90;9.90;;;17.50;1.00;;;;;;5031708;28;20576;-71
2023/07/23 04:50:12;;;;;;;9.37;8.50;;;17.50;1.00;;;;;;5025976;28;20937;-72
2023/07/23 04:52:39;;;;;;;9.90;8.67;;;17.50;1.00;;;;;;5028355;28;20470;-71
2023/07/23 04:55:08;;;;;;;10.10;9.20;;;17.40;1.00;;;;;;5027902;28;20470;-72
2023/07/23 04:57:35;;;;;;;9.70;8.80;;;17.50;1.00;;;;;;5027591;28;20900;-71
2023/07/23 05:00:05;;;;;;;9.70;8.80;;;17.40;1.00;;;;;;5028468;28;20544;-71
2023/07/23 05:02:32;;;;;;;9.50;8.70;;;17.50;1.00;;;;;;5029610;28;20903;-71
2023/07/23 05:04:59;;;;;;;9.70;8.70;;;17.50;1.00;;;;;;5026529;28;20890;-71
2023/07/23 05:07:27;;;;;;;10.23;8.87;;;17.60;1.00;;;;;;5024312;28;20450;-71
2023/07/23 05:09:54;;;;;;;9.80;8.80;;;17.60;1.00;;;;;;5025440;28;20465;-72
2023/07/23 05:12:21;;;;;;;9.90;9.00;;;17.60;1.00;;;;;;5025756;28;20584;-71
2023/07/23 05:14:49;;;;;;;9.43;8.60;;;17.50;1.00;;;;;;5028675;28;20466;-71
2023/07/23 05:17:16;;;;;;;9.83;8.83;;;17.60;1.00;;;;;;5024239;28;21030;-71
2023/07/23 05:19:43;;;;;;;10.90;9.70;;;17.70;1.00;;;;;;5027317;28;20551;-73
2023/07/23 05:22:09;;;;;;;10.23;9.33;;;17.60;1.00;;;;;;5025084;28;20470;-72
2023/07/23 05:24:38;;;;;;;10.60;9.70;;;17.70;1.00;;;;;;5029969;28;20466;-72
2023/07/23 05:27:06;;;;;;;10.00;9.10;;;17.80;1.00;;;;;;5027813;28;20475;-72
2023/07/23 05:29:33;;;;;;;9.80;8.90;;;17.90;1.00;;;;;;5029623;28;20459;-71
2023/07/23 05:32:00;;;;;;;11.60;10.40;;;18.00;1.00;;;;;;5027615;28;20505;-72
2023/07/23 05:34:27;;;;;;;8.77;8.07;;;18.10;1.00;;;;;;5027642;28;21057;-72
2023/07/23 05:36:55;;;;;;;10.10;9.00;;;18.10;1.00;;;;;;5027104;28;20815;-71
2023/07/23 05:39:22;;;;;;;9.20;8.40;;;18.00;1.00;;;;;;5021663;28;20558;-72
2023/07/23 05:41:50;;;;;;;10.87;9.83;;;18.00;1.00;;;;;;5023608;28;20467;-71
2023/07/23 05:44:17;;;;;;;9.20;8.40;;;18.20;1.00;;;;;;5023389;28;20514;-71
2023/07/23 05:46:44;;;;;;;9.97;9.17;;;18.30;1.00;;;;;;5025501;28;20561;-71
2023/07/23 05:49:11;;;;;;;10.17;9.13;;;18.40;1.00;;;;;;5025774;28;20970;-72
2023/07/23 05:51:38;;;;;;;9.60;8.80;;;18.50;1.00;;;;;;5027490;28;20479;-71
2023/07/23 05:54:05;;;;;;;8.70;7.90;;;18.40;1.00;;;;;;5022680;28;20858;-72
2023/07/23 05:56:32;;;;;;;12.00;8.90;;;18.50;1.00;;;;;;5021024;28;20462;-72
2023/07/23 05:59:01;;;;;;;9.60;8.70;;;18.50;1.00;;;;;;5022336;28;20490;-71
2023/07/23 06:01:28;;;;;;;9.67;8.73;;;18.60;1.00;;;;;;5019517;28;20479;-71
2023/07/23 06:03:55;;;;;;;10.73;9.80;;;18.80;1.00;;;;;;4959674;28;1525540;-71
2023/07/23 06:06:26;;;;;;;9.63;8.60;;;18.80;1.00;;;;;;5019461;28;20240;-70
2023/07/23 06:08:56;;;;;;;10.10;9.10;;;18.90;1.00;;;;;;5030106;28;20464;-72
2023/07/23 06:11:23;;;;;;;9.87;8.93;;;19.00;1.00;;;;;;5027250;28;20507;-70
2023/07/23 06:13:50;;;;;;;9.30;8.50;;;19.20;1.00;;;;;;5026252;28;20466;-72
2023/07/23 06:16:19;;;;;;;9.83;8.93;;;19.30;1.00;;;;;;5027319;28;20455;-71
2023/07/23 06:18:46;;;;;;;9.53;8.73;;;19.30;1.00;;;;;;5017345;28;20464;-71
2023/07/23 06:21:13;;;;;;;9.73;8.83;;;19.30;1.00;;;;;;5023380;28;20502;-71
2023/07/23 06:23:40;;;;;;;10.20;9.40;;;19.40;1.00;;;;;;5027995;28;20513;-72
2023/07/23 06:26:07;;;;;;;9.47;8.50;;;19.40;1.00;;;;;;4989189;28;20472;-71
2023/07/23 06:28:34;;;;;;;8.87;8.07;;;19.60;1.00;;;;;;5027355;28;20470;-72
2023/07/23 06:31:03;;;;;;;12.03;10.30;;;19.60;1.00;;;;;;5019483;28;21010;-73
2023/07/23 06:33:32;;;;;;;8.93;8.07;;;19.70;1.00;;;;;;5024857;28;20450;-71
2023/07/23 06:35:58;;;;;;;9.70;8.10;;;19.90;1.00;;;;;;5022314;28;20465;-72
2023/07/23 06:38:27;;;;;;;9.20;8.40;;;19.90;1.00;;;;;;5021659;28;20538;-70
2023/07/23 06:40:57;;;;;;;8.43;7.67;;;20.10;1.00;;;;;;5023383;28;20525;-71
2023/07/23 06:43:24;;;;;;;9.20;8.30;;;20.30;1.00;;;;;;5017315;28;20460;-71
2023/07/23 06:45:52;;;;;;;8.20;7.50;;;20.40;1.00;;;;;;5020755;28;21507;-70
2023/07/23 06:48:23;;;;;;;8.43;7.63;;;20.60;1.00;;;;;;5021613;28;20500;-71
2023/07/23 06:50:51;;;;;;;6.80;6.20;;;20.80;1.00;;;;;;5026493;28;20469;-71
2023/07/23 06:53:19;;;;;;;7.93;7.23;;;20.90;1.00;;;;;;5027369;28;20459;-71
2023/07/23 06:56:00;;;;;;;7.90;7.20;;;20.90;1.00;;;;;;5027824;28;20549;-71
2023/07/23 06:58:28;;;;;;;8.00;7.20;;;21.00;1.00;;;;;;5021072;28;20482;-71
2023/07/23 07:00:55;;;;;;;8.00;7.30;;;21.00;1.00;;;;;;5024978;28;20478;-71
2023/07/23 07:03:22;;;;;;;8.67;7.80;;;21.00;1.00;;;;;;5025209;28;20487;-72
2023/07/23 07:05:51;;;;;;;6.70;6.10;;;20.80;1.00;;;;;;5028293;28;20472;-71
2023/07/23 07:08:18;;;;;;;7.33;6.73;;;20.70;1.00;;;;;;5000629;28;20490;-71
2023/07/23 07:10:46;;;;;;;8.23;7.53;;;20.70;1.00;;;;;;5022347;28;20508;-71
2023/07/23 07:13:13;;;;;;;8.63;7.83;;;20.60;1.00;;;;;;5022960;28;20492;-71
2023/07/23 07:15:42;;;;;;;8.20;7.40;;;20.60;1.00;;;;;;5024495;28;21037;-70
2023/07/23 07:18:09;;;;;;;7.80;7.10;;;20.50;1.00;;;;;;5029765;28;20913;-71
2023/07/23 07:20:36;;;;;;;7.77;7.07;;;20.50;1.00;;;;;;5027792;28;20473;-71
2023/07/23 07:23:04;;;;;;;8.60;7.80;;;20.60;1.00;;;;;;5029489;28;20707;-71
2023/07/23 07:25:31;;;;;;;7.73;7.10;;;21.00;1.00;;;;;;5023849;28;20513;-71
2023/07/23 07:27:58;;;;;;;7.57;6.57;;;21.10;1.00;;;;;;5026387;28;20541;-71
2023/07/23 07:30:25;;;;;;;8.00;7.33;;;21.30;1.00;;;;;;5023158;28;21030;-71
2023/07/23 07:32:52;;;;;;;6.97;6.37;;;21.40;1.00;;;;;;5012470;28;20464;-70
2023/07/23 07:35:22;;;;;;;7.27;6.67;;;21.40;1.00;;;;;;5026586;28;21031;-70
2023/07/23 07:37:49;;;;;;;6.70;6.10;;;21.30;1.00;;;;;;5026205;28;20461;-69
2023/07/23 07:40:19;;;;;;;7.53;6.83;;;21.30;1.00;;;;;;5022543;28;20562;-70
2023/07/23 07:42:45;;;;;;;7.67;6.97;;;21.50;1.00;;;;;;5024698;28;20833;-72
2023/07/23 07:45:13;;;;;;;6.00;5.50;;;21.70;1.00;;;;;;5023437;28;20465;-70
2023/07/23 07:47:40;;;;;;;7.43;6.73;;;21.60;1.00;;;;;;5028787;28;20488;-70
2023/07/23 07:50:08;;;;;;;7.73;6.93;;;21.90;1.00;;;;;;5028280;28;21197;-71
2023/07/23 07:52:35;;;;;;;6.17;5.57;;;22.30;1.00;;;;;;5028343;28;20566;-71
2023/07/23 07:55:02;;;;;;;6.30;5.70;;;22.60;1.00;;;;;;5027684;28;20540;-71
2023/07/23 07:57:32;;;;;;;6.00;5.40;;;22.90;1.00;;;;;;5026259;28;20432;-71
2023/07/23 08:00:03;;;;;;;6.50;5.97;;;23.00;1.00;;;;;;5028953;28;20525;-71
2023/07/23 08:02:30;;;;;;;6.07;5.57;;;23.30;1.00;;;;;;5028295;28;20457;-71
2023/07/23 08:04:58;;;;;;;5.30;4.80;;;23.50;1.00;;;;;;5027160;28;20482;-71
2023/07/23 08:07:25;;;;;;;7.00;6.17;;;23.60;1.00;;;;;;5029242;28;20447;-71
2023/07/23 08:09:54;;;;;;;5.77;5.27;;;23.50;1.00;;;;;;5027990;28;21008;-71
2023/07/23 08:12:23;;;;;;;9.97;5.80;;;23.20;1.00;;;;;;5026864;28;20469;-71
2023/07/23 08:14:56;;;;;;;6.10;5.60;;;23.00;1.00;;;;;;5029047;28;20461;-71
2023/07/23 08:17:23;;;;;;;7.07;6.37;;;23.00;1.00;;;;;;5028617;28;20468;-70
2023/07/23 08:19:51;;;;;;;6.97;5.80;;;23.00;1.00;;;;;;5022698;28;20571;-72
2023/07/23 08:22:19;;;;;;;5.63;4.97;;;22.70;1.00;;;;;;5030307;28;20569;-72
2023/07/23 08:24:46;;;;;;;6.50;5.90;;;22.50;1.00;;;;;;5025178;28;20883;-71
2023/07/23 08:27:21;;;;;;;5.67;5.17;;;22.70;1.00;;;;;;5024031;28;20558;-71
2023/07/23 08:29:48;;;;;;;6.43;5.73;;;23.00;1.00;;;;;;5026212;28;20466;-72
2023/07/23 08:32:20;;;;;;;5.50;5.10;;;23.30;1.00;;;;;;5026394;28;20552;-71
2023/07/23 08:34:49;;;;;;;5.60;5.03;;;23.00;1.00;;;;;;5029216;28;20925;-71
2023/07/23 08:37:17;;;;;;;5.67;5.17;;;22.50;1.00;;;;;;5022142;28;20474;-72
2023/07/23 08:39:44;;;;;;;5.50;5.00;;;22.40;1.00;;;;;;5022205;28;21431;-72
2023/07/23 08:42:37;;;;;;;5.53;5.00;;;22.50;1.00;;;;;;5024486;28;20472;-72
2023/07/23 08:45:33;;;;;;;5.70;5.13;;;22.80;1.00;;;;;;5025636;28;20547;-70
2023/07/23 08:48:16;;;;;;;5.73;5.23;;;23.10;1.00;;;;;;4990039;28;20462;-70
2023/07/23 08:50:45;;;;;;;5.87;5.30;;;23.00;1.00;;;;;;5007547;28;20496;-71
2023/07/23 08:53:14;;;;;;;5.67;5.17;;;23.00;1.00;;;;;;5029287;28;20478;-71
2023/07/23 08:55:43;;;;;;;5.13;4.60;;;23.10;1.00;;;;;;5029364;28;20826;-71
2023/07/23 08:58:31;;;;;;;5.03;4.63;;;23.10;1.00;;;;;;5028604;28;20466;-71
2023/07/23 09:00:59;;;;;;;5.50;4.97;;;22.90;1.00;;;;;;4964156;28;20508;-71
2023/07/23 09:03:28;;;;;;;6.37;5.87;;;22.90;1.00;;;;;;4968764;28;20868;-70
2023/07/23 09:05:55;;;;;;;5.47;4.97;;;22.80;1.00;;;;;;4963617;28;20453;-70
2023/07/23 09:08:23;;;;;;;5.90;5.40;;;22.90;1.00;;;;;;4963806;28;20462;-72
2023/07/23 09:10:50;;;;;;;5.43;5.03;;;23.20;1.00;;;;;;4968350;28;20492;-70
2023/07/23 09:13:17;;;;;;;5.60;5.10;;;23.60;1.00;;;;;;4969967;28;20565;-71
2023/07/23 09:15:53;;;;;;;5.60;5.10;;;24.00;1.00;;;;;;4961072;28;21022;-70
2023/07/23 09:18:20;;;;;;;5.50;5.00;;;24.30;1.00;;;;;;4974121;28;20495;-70
2023/07/23 09:20:50;;;;;;;5.43;4.93;;;24.20;1.00;;;;;;5008663;28;20503;-72
2023/07/23 09:23:17;;;;;;;5.90;5.30;;;24.00;1.00;;;;;;5009916;28;20460;-71
2023/07/23 09:25:44;;;;;;;5.37;4.90;;;24.20;1.00;;;;;;5011625;28;20459;-71
2023/07/23 09:28:21;;;;;;;5.97;5.30;;;24.30;1.00;;;;;;5004677;28;20872;-71
2023/07/23 09:30:48;;;;;;;5.30;4.90;;;24.60;1.00;;;;;;5003101;28;20593;-70
2023/07/23 09:33:15;;;;;;;4.93;4.43;;;24.70;1.00;;;;;;5005401;28;20588;-71
2023/07/23 09:35:42;;;;;;;5.60;5.10;;;25.00;1.00;;;;;;5008961;28;20467;-71
2023/07/23 09:38:12;;;;;;;4.80;4.40;;;25.20;1.00;;;;;;5005502;28;20474;-71
2023/07/23 09:40:41;;;;;;;5.53;5.13;;;25.50;1.00;;;;;;4998028;28;20486;-70
2023/07/23 09:43:08;;;;;;;6.30;5.23;;;25.40;1.00;;;;;;5002627;28;20795;-70
2023/07/23 09:45:37;;;;;;;5.23;4.73;;;25.80;1.00;;;;;;5009161;28;20553;-71
2023/07/23 09:48:04;;;;;;;5.13;4.63;;;27.10;1.00;;;;;;5007931;28;20593;-70
2023/07/23 09:50:31;;;;;;;5.40;5.00;;;27.30;1.00;;;;;;5011248;28;20503;-71
2023/07/23 09:52:59;;;;;;;5.00;4.60;;;27.20;1.00;;;;;;5008772;28;20588;-71
2023/07/23 09:55:28;;;;;;;5.00;4.60;;;27.20;1.00;;;;;;5003492;28;20472;-71
2023/07/23 09:57:55;;;;;;;5.03;4.63;;;27.30;1.00;;;;;;5006707;28;20551;-71
2023/07/23 10:00:24;;;;;;;4.57;4.10;;;27.40;1.00;;;;;;5006656;28;20479;-71
2023/07/23 10:02:51;;;;;;;4.90;4.50;;;28.10;1.00;;;;;;5006836;28;20463;-71
2023/07/23 10:05:19;;;;;;;5.20;4.80;;;28.50;1.00;;;;;;5021167;28;20473;-71
2023/07/23 10:07:47;;;;;;;5.37;4.87;;;28.50;1.00;;;;;;5024612;28;20550;-71
2023/07/23 10:10:16;;;;;;;5.50;5.00;;;29.20;1.00;;;;;;5020858;28;20510;-72
2023/07/23 10:12:43;;;;;;;7.43;4.83;;;28.90;1.00;;;;;;5022980;28;20467;-73
2023/07/23 10:15:13;;;;;;;5.20;4.40;;;28.70;1.00;;;;;;5022863;28;20563;-73
2023/07/23 10:17:42;;;;;;;4.70;4.30;;;29.40;1.00;;;;;;5023466;28;20475;-73
2023/07/23 10:20:11;;;;;;;6.57;5.63;;;30.20;1.00;;;;;;5023173;28;20576;-71
2023/07/23 10:22:39;;;;;;;5.03;4.63;;;30.80;1.00;;;;;;5021193;28;20532;-71
2023/07/23 10:25:25;;;;;;;5.17;4.77;;;31.30;1.00;;;;;;5028160;28;20555;-72
2023/07/23 10:27:58;;;;;;;6.07;5.10;;;31.60;1.00;;;;;;5014439;28;20425;-72
2023/07/23 10:30:26;;;;;;;4.80;4.40;;;31.80;1.00;;;;;;5023189;28;20462;-72
2023/07/23 10:33:30;;;;;;;6.10;5.60;;;31.80;1.00;;;;;;5024108;28;20461;-69
2023/07/23 10:36:04;;;;;;;5.80;5.13;;;31.30;1.00;;;;;;5028516;28;21001;-71
2023/07/23 10:38:32;;;;;;;5.03;4.63;;;30.50;1.00;;;;;;5026778;28;21278;-71
2023/07/23 10:41:00;;;;;;;6.77;4.63;;;29.60;1.00;;;;;;5029187;28;20494;-72
2023/07/23 10:43:40;;;;;;;5.70;4.83;;;28.90;1.00;;;;;;5027924;28;20547;-72
2023/07/23 10:46:09;;;;;;;5.03;4.63;;;28.80;1.00;;;;;;5021742;28;20547;-72
2023/07/23 10:48:45;;;;;;;5.23;4.73;;;28.70;1.00;;;;;;5024218;28;20513;-70
2023/07/23 10:51:13;;;;;;;5.20;4.70;;;29.10;1.00;;;;;;5020434;28;20484;-72
2023/07/23 10:53:54;;;;;;;4.83;4.30;;;29.30;1.00;;;;;;5022086;28;20461;-72
2023/07/23 10:56:27;;;;;;;5.40;4.90;;;29.60;1.00;;;;;;5018993;28;20472;-72
2023/07/23 10:59:04;;;;;;;6.53;5.27;;;30.00;1.00;;;;;;5019488;28;20963;-72
2023/07/23 11:01:35;;;;;;;5.17;4.77;;;29.60;1.00;;;;;;5024076;28;20565;-72
2023/07/23 11:04:09;;;;;;;5.70;5.20;;;28.80;1.00;;;;;;5022040;28;20477;-72
2023/07/23 11:06:36;;;;;;;4.80;4.50;;;29.00;1.00;;;;;;5024918;28;20542;-72
2023/07/23 11:09:10;;;;;;;5.17;4.77;;;28.80;1.00;;;;;;5021951;28;21110;-73
2023/07/23 11:11:39;;;;;;;5.00;4.60;;;28.80;1.00;;;;;;5018370;28;20472;-71
2023/07/23 11:14:19;;;;;;;8.13;4.80;;;29.10;1.00;;;;;;5022134;28;20456;-73
2023/07/23 11:16:47;;;;;;;4.90;4.50;;;30.40;1.00;;;;;;5021021;28;20547;-73
2023/07/23 11:19:14;;;;;;;5.37;4.87;;;31.60;1.00;;;;;;5017618;28;20512;-71
2023/07/23 11:21:51;;;;;;;4.63;4.23;;;32.00;1.00;;;;;;5028057;28;20528;-72
2023/07/23 11:24:19;;;;;;;4.70;4.40;;;32.30;1.00;;;;;;5000968;28;20692;-73
2023/07/23 11:26:46;;;;;;;4.63;4.33;;;32.40;1.00;;;;;;5023307;28;20465;-72
2023/07/23 11:29:14;;;;;;;6.10;4.57;;;32.70;1.00;;;;;;5020410;28;20465;-72
2023/07/23 11:31:44;;;;;;;5.40;4.30;;;33.00;1.00;;;;;;5020691;28;20523;-73
2023/07/23 11:34:12;;;;;;;5.20;4.60;;;32.70;1.00;;;;;;5019133;28;20468;-72
2023/07/23 11:36:41;;;;;;;5.23;4.83;;;32.30;1.00;;;;;;5022357;28;20497;-73
2023/07/23 11:39:09;;;;;;;5.57;5.07;;;32.40;1.00;;;;;;5025203;28;20468;-73
2023/07/23 11:41:40;;;;;;;5.40;5.00;;;32.40;1.00;;;;;;5031226;28;20480;-72
2023/07/23 11:44:08;;;;;;;5.97;5.47;;;32.50;1.00;;;;;;5018980;28;20453;-73
2023/07/23 11:46:36;;;;;;;5.43;4.90;;;32.30;1.00;;;;;;5021842;28;20906;-73
2023/07/23 11:49:07;;;;;;;5.37;4.97;;;32.20;1.00;;;;;;5024180;28;20461;-72
2023/07/23 11:51:34;;;;;;;4.87;4.47;;;31.80;1.00;;;;;;5025328;28;20469;-72
2023/07/23 11:54:07;;;;;;;6.03;5.43;;;31.30;1.00;;;;;;5026547;28;20452;-74
2023/07/23 11:56:36;;;;;;;7.23;5.40;;;30.80;1.00;;;;;;5008352;28;21116;-73
2023/07/23 11:59:04;;;;;;;7.60;5.00;;;30.60;1.00;;;;;;5030824;28;20968;-73
2023/07/23 12:01:31;;;;;;;5.37;4.87;;;30.90;1.00;;;;;;5022809;28;21002;-73
2023/07/23 12:04:03;;;;;;;5.37;4.33;;;31.70;1.00;;;;;;5022825;28;20507;-73
2023/07/23 12:06:33;;;;;;;4.30;4.00;;;32.70;1.00;;;;;;5025250;28;20543;-74
2023/07/23 12:09:00;;;;;;;5.63;4.67;;;33.50;1.00;;;;;;5025753;28;20465;-73
2023/07/23 12:11:32;;;;;;;4.17;3.87;;;33.70;1.00;;;;;;5013604;28;20616;-73
2023/07/23 12:14:03;;;;;;;5.20;4.80;;;33.40;1.00;;;;;;5023767;28;20449;-73
2023/07/23 12:16:36;;;;;;;4.83;4.23;;;33.00;1.00;;;;;;5023431;28;20460;-72
2023/07/23 12:19:04;;;;;;;3.90;3.60;;;32.60;1.00;;;;;;5024627;28;20903;-74
2023/07/23 12:21:34;;;;;;;4.53;4.13;;;32.20;1.00;;;;;;5023143;28;20560;-73
2023/07/23 12:24:15;;;;;;;4.27;3.87;;;32.00;1.00;;;;;;5021247;28;20462;-72
2023/07/23 12:26:43;;;;;;;6.80;4.70;;;31.70;1.00;;;;;;5005351;28;21078;-71
2023/07/23 12:29:16;;;;;;;4.03;3.73;;;31.50;1.00;;;;;;5019531;28;20454;-73
2023/07/23 12:31:45;;;;;;;4.80;4.40;;;31.10;1.00;;;;;;5019975;28;20469;-73
2023/07/23 12:34:13;;;;;;;3.90;3.60;;;31.00;1.00;;;;;;5017298;28;20476;-72
2023/07/23 12:36:43;;;;;;;3.40;3.10;;;31.00;1.00;;;;;;5025854;28;20487;-72
2023/07/23 12:39:11;;;;;;;3.63;3.40;;;31.00;1.00;;;;;;5021683;28;20465;-72
2023/07/23 12:41:38;;;;;;;3.90;3.53;;;30.70;1.00;;;;;;5025260;28;20477;-72
2023/07/23 12:44:06;;;;;;;4.03;3.73;;;30.70;1.00;;;;;;5022057;28;20531;-76
2023/07/23 12:46:33;;;;;;;3.90;3.53;;;30.20;1.00;;;;;;5024151;28;20983;-73
2023/07/23 12:49:01;;;;;;;3.70;3.40;;;30.10;1.00;;;;;;5019189;28;20575;-72
2023/07/23 12:51:28;;;;;;;3.73;3.47;;;30.10;1.00;;;;;;5021572;28;20488;-74
2023/07/23 12:53:57;;;;;;;3.93;3.63;;;30.10;1.00;;;;;;5022405;28;20469;-72
2023/07/23 12:56:24;;;;;;;4.53;3.20;;;30.10;1.00;;;;;;5020409;28;20503;-73
2023/07/23 12:58:51;;;;;;;3.90;3.60;;;30.00;1.00;;;;;;5018991;28;20974;-73
2023/07/23 13:01:18;;;;;;;3.93;3.63;;;30.00;1.00;;;;;;5024025;28;20504;-73